Time;durP1;ratioP1;P1;durP2;ratioP2;P2;SDS_P1;SDS_P2;PMS_P1;PMS_P2;Temp;Humidity;BMP_temperature;BMP_pressure;BME280_temperature;BME280_humidity;BME280_pressure;Samples;Min_cycle;Max_cycle;Signal;HPM_P1;HPM_P2
2023/07/24 06:12:26;;;;;;;5.70;3.38;;;;;;;;;;10623570;27;20020;-84
2023/07/24 06:17:41;;;;;;;5.83;4.10;;;;;;;;;;10638710;27;20035;-84
2023/07/24 06:23:03;;;;;;;4.95;3.40;;;;;;;;;;10639015;28;20342;-84
2023/07/24 06:33:57;;;;;;;7.38;4.40;;;;;;;;;;10646644;28;20046;-84
2023/07/24 06:39:28;;;;;;;6.43;3.72;;;;;;;;;;10626167;28;20027;-85
2023/07/24 06:44:41;;;;;;;4.95;3.70;;;;;;;;;;10613544;28;20019;-86
2023/07/24 06:50:20;;;;;;;4.93;3.42;;;;;;;;;;10608793;28;20027;-84
2023/07/24 06:55:26;;;;;;;4.95;3.03;;;;;;;;;;10607797;28;20024;-85
2023/07/24 07:00:27;;;;;;;5.50;3.85;;;;;;;;;;10583954;28;20031;-84
2023/07/24 07:05:28;;;;;;;3.50;2.15;;;;;;;;;;10606947;28;20087;-82
2023/07/24 07:10:29;;;;;;;6.18;4.30;;;;;;;;;;10598649;28;20034;-82
2023/07/24 07:15:30;;;;;;;4.05;2.95;;;;;;;;;;10603029;28;20038;-80
2023/07/24 07:20:31;;;;;;;6.20;4.50;;;;;;;;;;10581710;28;20435;-83
2023/07/24 07:25:32;;;;;;;10.23;7.28;;;;;;;;;;10582230;28;20024;-83
2023/07/24 07:30:33;;;;;;;11.65;9.63;;;;;;;;;;10579757;28;20019;-84
2023/07/24 07:35:34;;;;;;;18.95;16.88;;;;;;;;;;10577514;28;20154;-81
2023/07/24 07:40:39;;;;;;;19.98;17.10;;;;;;;;;;10584111;28;20062;-82
2023/07/24 07:45:40;;;;;;;11.63;10.38;;;;;;;;;;10580072;28;20503;-85
2023/07/24 07:50:41;;;;;;;16.92;12.45;;;;;;;;;;10588000;28;20417;-84
2023/07/24 07:55:42;;;;;;;18.50;14.05;;;;;;;;;;10590866;28;20042;-84
2023/07/24 08:00:43;;;;;;;23.10;20.70;;;;;;;;;;10589797;28;20019;-83
2023/07/24 08:05:44;;;;;;;20.02;17.88;;;;;;;;;;10591238;28;20043;-84
2023/07/24 08:10:45;;;;;;;19.13;16.50;;;;;;;;;;10587957;28;20046;-85
2023/07/24 08:15:46;;;;;;;15.95;14.35;;;;;;;;;;10607613;28;20034;-84
2023/07/24 08:20:47;;;;;;;14.93;11.75;;;;;;;;;;10583865;28;20024;-83
2023/07/24 08:25:52;;;;;;;18.10;14.70;;;;;;;;;;10587453;28;20027;-83
2023/07/24 08:30:57;;;;;;;12.95;11.65;;;;;;;;;;10585218;28;20030;-84
2023/07/24 08:36:08;;;;;;;10.70;9.60;;;;;;;;;;10582241;28;20028;-83
2023/07/24 08:41:10;;;;;;;13.30;11.85;;;;;;;;;;10599745;28;20390;-82
2023/07/24 08:46:11;;;;;;;13.52;10.35;;;;;;;;;;10581440;28;20136;-83
2023/07/24 08:51:13;;;;;;;10.00;8.98;;;;;;;;;;10585740;28;20023;-82
2023/07/24 08:56:14;;;;;;;11.20;9.88;;;;;;;;;;10607755;28;20334;-83
2023/07/24 09:01:16;;;;;;;9.77;8.82;;;;;;;;;;10600977;28;20020;-82
2023/07/24 09:06:18;;;;;;;10.40;8.75;;;;;;;;;;10580362;28;20047;-83
2023/07/24 09:11:20;;;;;;;8.10;7.25;;;;;;;;;;10604129;28;20465;-83
2023/07/24 09:16:22;;;;;;;8.43;7.45;;;;;;;;;;10607988;28;20035;-83
2023/07/24 09:21:32;;;;;;;7.10;5.70;;;;;;;;;;10627089;27;20024;-82
2023/07/24 09:26:33;;;;;;;5.88;5.25;;;;;;;;;;10600689;27;20038;-84
2023/07/24 09:31:35;;;;;;;6.40;5.05;;;;;;;;;;10575850;28;20053;-83
2023/07/24 09:36:39;;;;;;;4.35;3.85;;;;;;;;;;10576036;28;20062;-82
2023/07/24 09:41:40;;;;;;;4.82;3.75;;;;;;;;;;10573772;28;20077;-82
2023/07/24 09:46:44;;;;;;;4.75;3.58;;;;;;;;;;10573806;28;20114;-82
2023/07/24 09:51:48;;;;;;;4.60;3.95;;;;;;;;;;10576372;28;20081;-82
2023/07/24 09:56:51;;;;;;;3.67;3.13;;;;;;;;;;10575610;28;20031;-81
2023/07/24 10:01:53;;;;;;;4.13;2.97;;;;;;;;;;10602612;28;20079;-84
2023/07/24 10:06:54;;;;;;;6.18;2.80;;;;;;;;;;10590579;28;20053;-83
2023/07/24 10:11:59;;;;;;;3.42;2.90;;;;;;;;;;10596167;28;20092;-84
2023/07/24 10:17:01;;;;;;;5.07;2.70;;;;;;;;;;10592941;28;20076;-82
2023/07/24 10:22:03;;;;;;;4.18;2.50;;;;;;;;;;10613277;28;20069;-81
2023/07/24 10:27:04;;;;;;;3.72;2.53;;;;;;;;;;10596354;28;20111;-82
2023/07/24 10:32:17;;;;;;;3.47;2.40;;;;;;;;;;10598699;28;20030;-83
2023/07/24 10:37:18;;;;;;;4.32;2.67;;;;;;;;;;10608388;28;20056;-83
2023/07/24 10:42:23;;;;;;;5.32;2.50;;;;;;;;;;10615528;27;20365;-84
2023/07/24 10:47:24;;;;;;;5.18;2.50;;;;;;;;;;10597500;28;20049;-84
2023/07/24 10:52:33;;;;;;;3.85;3.00;;;;;;;;;;10596033;28;20042;-84
2023/07/24 10:57:34;;;;;;;9.05;5.15;;;;;;;;;;10601259;28;20036;-83
2023/07/24 11:02:35;;;;;;;4.10;2.88;;;;;;;;;;10591178;28;20055;-84
2023/07/24 11:07:36;;;;;;;5.93;3.55;;;;;;;;;;10586106;28;20151;-85
2023/07/24 11:12:39;;;;;;;5.80;3.10;;;;;;;;;;10588323;28;20083;-85
2023/07/24 11:17:42;;;;;;;6.18;3.40;;;;;;;;;;10586886;28;20126;-84
2023/07/24 11:22:46;;;;;;;4.53;3.15;;;;;;;;;;10586256;28;20478;-84
2023/07/24 11:27:47;;;;;;;4.22;3.28;;;;;;;;;;10587254;28;20039;-83
2023/07/24 11:32:48;;;;;;;4.85;2.83;;;;;;;;;;10611044;27;20035;-83
2023/07/24 11:37:58;;;;;;;5.32;2.97;;;;;;;;;;10585019;28;20032;-86
2023/07/24 11:42:59;;;;;;;3.90;3.20;;;;;;;;;;10584069;28;20106;-85
2023/07/24 11:48:00;;;;;;;4.55;3.15;;;;;;;;;;10577829;28;20036;-78
2023/07/24 11:53:01;;;;;;;4.78;2.97;;;;;;;;;;10596223;28;20038;-79
2023/07/24 11:58:03;;;;;;;5.38;3.80;;;;;;;;;;10606478;22;20055;-83
2023/07/24 12:03:49;;;;;;;5.05;3.10;;;;;;;;;;10635726;27;20031;-88
2023/07/24 14:08:41;;;;;;;3.53;3.08;;;;;;;;;;10640341;27;20023;-88
2023/07/24 16:30:22;;;;;;;5.03;4.00;;;;;;;;;;10634130;27;20023;-88
2023/07/24 17:15:32;;;;;;;3.10;2.10;;;;;;;;;;10632597;27;20051;-89
2023/07/24 18:00:45;;;;;;;5.55;3.00;;;;;;;;;;10661330;22;20467;-85
2023/07/24 18:06:02;;;;;;;4.25;3.22;;;;;;;;;;10621987;28;20598;-84
2023/07/24 18:11:23;;;;;;;8.27;3.58;;;;;;;;;;10522111;28;20542;-84
2023/07/24 18:16:24;;;;;;;12.93;5.28;;;;;;;;;;10580351;28;20055;-84
2023/07/24 18:21:46;;;;;;;7.60;4.65;;;;;;;;;;10580132;28;20193;-83
2023/07/24 18:26:49;;;;;;;11.85;5.95;;;;;;;;;;10548617;28;20063;-83
2023/07/24 18:32:11;;;;;;;6.55;4.57;;;;;;;;;;10598339;28;20118;-84
2023/07/24 18:43:06;;;;;;;16.10;9.88;;;;;;;;;;10555413;28;20087;-83
2023/07/24 18:48:26;;;;;;;24.88;15.30;;;;;;;;;;10579149;28;20032;-83
2023/07/24 18:53:43;;;;;;;35.17;25.47;;;;;;;;;;10582617;28;20028;-83
2023/07/24 18:58:49;;;;;;;38.80;27.70;;;;;;;;;;10588337;28;20118;-84
2023/07/24 19:04:13;;;;;;;6.30;5.10;;;;;;;;;;10601574;28;20039;-83
2023/07/24 19:09:21;;;;;;;10.35;6.95;;;;;;;;;;10585301;28;20118;-84
